createdAt,value
2023-03-06T00:05:16.326Z,98099.6
2023-03-06T00:10:51.550Z,98098.5
2023-03-06T00:16:32.690Z,98099.6
2023-03-06T00:22:07.794Z,98098.8
2023-03-06T00:27:43.562Z,98101.9
2023-03-06T00:33:26.081Z,98103
2023-03-06T00:39:09.539Z,98100.5
2023-03-06T00:44:52.696Z,98103.9
2023-03-06T00:50:36.652Z,98106.4
2023-03-06T00:56:13.472Z,98105.2
2023-03-06T01:01:55.734Z,98105.2
2023-03-06T01:07:30.992Z,98106.1
2023-03-06T01:13:11.663Z,98115.3
2023-03-06T01:18:48.322Z,98123.6
2023-03-06T01:24:54.026Z,98123.1
2023-03-06T01:30:26.791Z,98119.5
2023-03-06T01:36:11.608Z,98122.7
2023-03-06T01:42:03.965Z,98124.2
2023-03-06T01:47:49.908Z,98121.5
2023-03-06T01:53:29.667Z,98120.6
2023-03-06T01:59:16.423Z,98124.3
2023-03-06T02:04:52.381Z,98124.7
2023-03-06T02:13:04.190Z,98118
2023-03-06T02:18:39.015Z,98119
2023-03-06T02:24:46.340Z,98113.3
2023-03-06T02:30:20.704Z,98109.8
2023-03-06T02:35:59.766Z,98104.2
2023-03-06T02:41:49.189Z,98105
2023-03-06T02:47:38.234Z,98103
2023-03-06T02:53:13.053Z,98102.8
2023-03-06T02:58:57.082Z,98105.7
2023-03-06T03:05:16.511Z,98106.4
2023-03-06T03:10:51.481Z,98102.5
2023-03-06T03:17:37.277Z,98097.8
2023-03-06T03:24:24.270Z,98093.5
2023-03-06T03:29:58.838Z,98094.4
2023-03-06T03:35:59.517Z,98092.4
2023-03-06T03:41:34.637Z,98093.4
2023-03-06T03:47:31.202Z,98091.1
2023-03-06T03:53:15.099Z,98087.4
2023-03-06T03:58:50.383Z,98088.5
2023-03-06T04:04:28.724Z,98080.7
2023-03-06T04:10:05.785Z,98085.8
2023-03-06T04:15:43.722Z,98085.6
2023-03-06T04:21:19.664Z,98088
2023-03-06T04:27:03.482Z,98085.3
2023-03-06T04:33:27.436Z,98083.2
2023-03-06T04:39:14.161Z,98084.7
2023-03-06T04:45:37.194Z,98082.2
2023-03-06T04:52:07.880Z,98087.3
2023-03-06T04:58:31.171Z,98093.8
2023-03-06T05:04:28.364Z,98092.4
2023-03-06T05:10:12.503Z,98093.6
2023-03-06T05:15:47.364Z,98088.5
2023-03-06T05:21:25.975Z,98088.5
2023-03-06T05:27:01.306Z,98093.2
2023-03-06T05:32:36.719Z,98097.4
2023-03-06T05:38:12.748Z,98103.4
2023-03-06T05:43:49.159Z,98104.1
2023-03-06T05:49:35.832Z,98103.3
2023-03-06T05:55:11.183Z,98104.7
2023-03-06T06:00:58.411Z,98097.6
2023-03-06T06:07:20.540Z,98094.1
2023-03-06T06:13:07.701Z,98096.5
2023-03-06T06:18:51.359Z,98098.1
2023-03-06T06:24:56.816Z,98098.8
2023-03-06T06:30:30.372Z,98100.3
2023-03-06T06:36:05.092Z,98106.5
2023-03-06T06:42:33.101Z,98109.6
2023-03-06T06:48:18.644Z,98116.2
2023-03-06T06:53:55.914Z,98121.4
2023-03-06T06:59:40.399Z,98121.6
2023-03-06T07:05:22.557Z,98129.1
2023-03-06T07:11:19.009Z,98132.2
2023-03-06T07:16:57.742Z,98135.6
2023-03-06T07:23:00.347Z,98138.5
2023-03-06T07:28:53.270Z,98144.3
2023-03-06T07:35:21.393Z,98148.3
2023-03-06T07:40:57.670Z,98157.2
2023-03-06T07:46:41.919Z,98156.9
2023-03-06T07:52:41.979Z,98156
2023-03-06T07:58:20.178Z,98167
2023-03-06T08:03:56.689Z,98173.3
2023-03-06T08:09:33.027Z,98179.6
2023-03-06T08:15:30.329Z,98180.4
2023-03-06T08:21:06.027Z,98182.1
2023-03-06T08:26:40.940Z,98184.9
2023-03-06T08:32:20.892Z,98189
2023-03-06T08:37:57.431Z,98192
2023-03-06T08:43:33.371Z,98187.3
2023-03-06T08:49:13.186Z,98186.5
2023-03-06T08:55:12.887Z,98183.2
2023-03-06T09:00:51.605Z,98184.4
2023-03-06T09:06:38.380Z,98176.6
2023-03-06T09:12:14.260Z,98178.2
2023-03-06T09:17:50.226Z,98173.9
2023-03-06T09:23:48.640Z,98171.3
2023-03-06T09:29:23.037Z,98173.2
2023-03-06T09:34:58.406Z,98176.7
2023-03-06T09:40:34.485Z,98175.6
2023-03-06T09:46:15.349Z,98179.8
2023-03-06T09:51:51.610Z,98181.6
2023-03-06T09:57:26.573Z,98185.5
2023-03-06T10:03:26.128Z,98185.7
2023-03-06T10:09:07.761Z,98190.2
2023-03-06T10:14:43.511Z,98183.5
2023-03-06T10:20:24.051Z,98189.6
2023-03-06T10:25:59.551Z,98190.5
2023-03-06T10:31:35.017Z,98193.3
2023-03-06T10:37:10.553Z,98195.3
2023-03-06T10:42:46.024Z,98195.5
2023-03-06T10:48:21.566Z,98195.7
2023-03-06T10:53:56.968Z,98188.5
2023-03-06T10:59:32.074Z,98190.5
2023-03-06T11:05:08.241Z,98183.7
2023-03-06T11:10:43.607Z,98172.4
2023-03-06T11:16:28.937Z,98169.4
2023-03-06T11:22:04.670Z,98172.4
2023-03-06T11:27:40.103Z,98169.6
2023-03-06T11:33:16.327Z,98162.3
2023-03-06T11:38:54.251Z,98159.7
2023-03-06T11:44:30.024Z,98159.4
2023-03-06T11:50:05.460Z,98144.4
2023-03-06T11:55:44.966Z,98133.4
2023-03-06T12:01:20.721Z,98132.2
2023-03-06T12:07:08.341Z,98125.4
2023-03-06T12:12:44.591Z,98117.8
2023-03-06T12:18:21.111Z,98108
2023-03-06T12:24:01.543Z,98098.3
2023-03-06T12:29:37.904Z,98093.7
2023-03-06T12:35:17.691Z,98080.4
2023-03-06T12:41:24.822Z,98075.8
2023-03-06T12:47:15.559Z,98068
2023-03-06T12:52:53.550Z,98052.8
2023-03-06T12:58:33.201Z,98047.8
2023-03-06T13:04:21.228Z,98045.8
2023-03-06T13:09:57.928Z,98033.1
2023-03-06T13:15:33.246Z,98026
2023-03-06T13:21:11.091Z,98021.7
2023-03-06T13:26:46.235Z,98003.1
2023-03-06T13:32:22.725Z,98003.2
2023-03-06T13:37:58.522Z,97996.6
2023-03-06T13:43:34.247Z,97992.7
2023-03-06T13:49:10.654Z,97990.4
2023-03-06T13:54:51.994Z,97984.1
2023-03-06T14:00:34.356Z,97979.7
2023-03-06T14:06:31.488Z,97970.5
2023-03-06T14:13:00.928Z,97959.9
2023-03-06T14:18:36.882Z,97955.4
2023-03-06T14:24:34.266Z,97945.3
2023-03-06T14:30:07.696Z,97949.5
2023-03-06T14:35:53.233Z,97934.1
2023-03-06T14:41:31.712Z,97937.9
2023-03-06T14:47:08.552Z,97941.6
2023-03-06T14:52:45.505Z,97944
2023-03-06T14:58:42.703Z,97933.3
2023-03-06T15:04:42.962Z,97919.1
2023-03-06T15:10:39.813Z,97916.6
2023-03-06T15:16:33.829Z,97912.9
2023-03-06T15:23:58.275Z,97906.8
2023-03-06T15:29:31.615Z,97898.3
2023-03-06T15:35:12.966Z,97896.7
2023-03-06T15:40:50.292Z,97899.3
2023-03-06T15:46:31.430Z,97898.4
2023-03-06T15:52:06.526Z,97900.5
2023-03-06T15:57:48.016Z,97901.5
2023-03-06T16:03:23.824Z,97902.5
2023-03-06T16:09:02.044Z,97900.6
2023-03-06T16:14:40.190Z,97893.1
2023-03-06T16:20:16.040Z,97892.5
2023-03-06T16:26:04.722Z,97895
2023-03-06T16:32:15.229Z,97894.8
2023-03-06T16:38:11.802Z,97900
2023-03-06T16:43:47.245Z,97904.5
2023-03-06T16:49:33.534Z,97902.3
2023-03-06T16:55:15.060Z,97909.8
2023-03-06T17:00:58.519Z,97913
2023-03-06T17:06:35.264Z,97910.2
2023-03-06T17:12:11.361Z,97914.2
2023-03-06T17:17:49.722Z,97918.9
2023-03-06T17:23:27.497Z,97922.5
2023-03-06T17:29:28.970Z,97929.1
2023-03-06T17:35:12.489Z,97929.7
2023-03-06T17:40:50.229Z,97928.4
2023-03-06T17:46:32.497Z,97926.6
2023-03-06T17:52:13.347Z,97926
2023-03-06T17:58:06.470Z,97926.5
2023-03-06T18:03:56.248Z,97925.9
2023-03-06T18:09:58.660Z,97922.4
2023-03-06T18:16:01.420Z,97924.9
2023-03-06T18:21:39.478Z,97927.8
2023-03-06T18:27:40.915Z,97924.7
2023-03-06T18:33:16.212Z,97925.1
2023-03-06T18:38:51.479Z,97934.8
2023-03-06T18:44:30.488Z,97933
2023-03-06T18:50:06.679Z,97925.9
2023-03-06T18:55:52.004Z,97926.5
2023-03-06T19:01:27.541Z,97927.9
2023-03-06T19:07:11.957Z,97920.1
2023-03-06T19:12:52.494Z,97915.3
2023-03-06T19:18:33.080Z,97917.2
2023-03-06T19:24:35.854Z,97915.2
2023-03-06T19:30:08.404Z,97916.4
2023-03-06T19:35:44.061Z,97915.7
2023-03-06T19:41:19.845Z,97907.8
2023-03-06T19:46:55.462Z,97907.2
2023-03-06T19:52:31.052Z,97908
2023-03-06T19:58:06.523Z,97906.5
2023-03-06T20:03:41.974Z,97906.8
2023-03-06T20:09:17.140Z,97906.5
2023-03-06T20:14:54.165Z,97904.9
2023-03-06T20:20:29.309Z,97911.8
2023-03-06T20:26:07.442Z,97914.2
2023-03-06T20:31:43.178Z,97913.7
2023-03-06T20:37:19.681Z,97908.2
2023-03-06T20:42:55.170Z,97911.6
2023-03-06T20:48:46.972Z,97911.3
2023-03-06T20:54:22.993Z,97907.8
2023-03-06T20:59:59.696Z,97902.7
2023-03-06T21:05:35.490Z,97893.5
2023-03-06T21:11:10.573Z,97890
2023-03-06T21:16:47.620Z,97892.9
2023-03-06T21:22:22.863Z,97894.7
2023-03-06T21:27:57.929Z,97886.4
2023-03-06T21:33:42.069Z,97885.6
2023-03-06T21:39:17.516Z,97885.1
2023-03-06T21:44:53.255Z,97874.7
2023-03-06T21:50:49.135Z,97869.9
2023-03-06T21:56:38.336Z,97870.8
2023-03-06T22:02:14.483Z,97866.5
2023-03-06T22:07:49.501Z,97858.9
2023-03-06T22:13:25.949Z,97843.7
2023-03-06T22:19:02.352Z,97844.8
2023-03-06T22:25:09.336Z,97838.8
2023-03-06T22:30:42.425Z,97830.3
2023-03-06T22:36:17.633Z,97822.6
2023-03-06T22:41:52.856Z,97814.5
2023-03-06T22:47:28.369Z,97805
2023-03-06T22:53:04.530Z,97806
2023-03-06T22:58:39.547Z,97801
2023-03-06T23:04:14.921Z,97790.8
2023-03-06T23:09:50.479Z,97789.5
2023-03-06T23:15:28.323Z,97787.7
2023-03-06T23:21:04.234Z,97778.7
2023-03-06T23:26:39.780Z,97776.7
2023-03-06T23:32:15.314Z,97764.4
2023-03-06T23:37:56.277Z,97756.3
2023-03-06T23:43:31.254Z,97751.6
2023-03-06T23:49:06.574Z,97738.1
2023-03-06T23:54:42.677Z,97721.7
